CPT2 weather

Killarney Airport
Killarney, Ontario, Canada

Public forecast

Using degrees Celsius for public forecast. Weather courtesy of forecast.io.

Closest aviation weather report (METAR) to Killarney Airport

Closest report is Gore Bay Manitoulin Airport, 45.2 nm (83.6 km) W. Retrieved 2019/10/14 14:00 UTC (16 minutes ago):

CYZE 141400Z AUTO 29009G15KT 9SM CLR 06/03 A2984 RMK SLP113

Closest aviation forecast (TAF) to Killarney Airport

Closest forecast is Gore Bay Manitoulin Airport, 45.2 nm (83.6 km) W. Retrieved 2019/10/14 14:00 UTC (16 minutes ago):

TAF CYZE 141339Z 1414/1422 26012G22KT P6SM SCT040 TEMPO 1414/1422 5SM -SHRA BR BKN040 RMK FCST BASED ON AUTO OBS NXT FCST BY 142000Z